createdAt,value
2022-08-08T00:00:54.519Z,9.70
2022-08-08T00:03:28.492Z,9.30
2022-08-08T00:06:13.484Z,9.00
2022-08-08T00:08:51.990Z,9.30
2022-08-08T00:12:09.344Z,8.90
2022-08-08T00:14:59.484Z,9.20
2022-08-08T00:18:03.054Z,9.30
2022-08-08T00:20:49.476Z,8.20
2022-08-08T00:23:52.676Z,7.40
2022-08-08T00:26:29.455Z,7.30
2022-08-08T00:29:17.559Z,7.50
2022-08-08T00:32:36.615Z,7.10
2022-08-08T00:35:27.484Z,8.10
2022-08-08T00:38:01.585Z,7.30
2022-08-08T00:41:09.995Z,7.90
2022-08-08T00:43:40.882Z,7.90
2022-08-08T00:46:57.947Z,7.60
2022-08-08T00:50:03.778Z,7.40
2022-08-08T00:52:54.206Z,8.00
2022-08-08T00:56:16.517Z,8.20
2022-08-08T00:59:18.742Z,9.30
2022-08-08T01:04:01.051Z,8.00
2022-08-08T01:06:02.247Z,7.50
2022-08-08T01:08:51.903Z,7.70
2022-08-08T01:11:59.137Z,7.00
2022-08-08T01:14:53.438Z,6.70
2022-08-08T01:17:18.261Z,7.30
2022-08-08T01:20:28.951Z,7.10
2022-08-08T01:24:02.897Z,6.20
2022-08-08T01:26:27.028Z,6.40
2022-08-08T01:29:27.957Z,6.30
2022-08-08T01:32:16.087Z,6.50
2022-08-08T01:35:11.262Z,7.00
2022-08-08T01:37:58.465Z,6.90
2022-08-08T01:41:05.856Z,7.30
2022-08-08T01:44:06.435Z,6.60
2022-08-08T01:48:14.771Z,6.40
2022-08-08T01:50:06.920Z,6.40
2022-08-08T01:55:16.259Z,5.80
2022-08-08T01:56:29.740Z,6.60
2022-08-08T01:59:03.143Z,6.20
2022-08-08T02:02:39.614Z,6.30
2022-08-08T02:05:56.679Z,6.80
2022-08-08T02:08:47.775Z,7.10
2022-08-08T02:11:52.886Z,8.10
2022-08-08T02:14:55.100Z,7.40
2022-08-08T02:17:42.666Z,7.90
2022-08-08T02:23:35.436Z,6.70
2022-08-08T02:26:12.211Z,6.80
2022-08-08T02:28:59.538Z,7.10
2022-08-08T02:32:15.759Z,6.80
2022-08-08T02:35:11.122Z,7.90
2022-08-08T02:37:58.338Z,7.80
2022-08-08T02:40:38.752Z,8.60
2022-08-08T02:44:39.376Z,8.60
2022-08-08T02:46:31.839Z,9.00
2022-08-08T02:49:18.653Z,8.70
2022-08-08T02:52:03.150Z,10.20
2022-08-08T02:54:53.889Z,9.30
2022-08-08T02:57:44.917Z,8.20
2022-08-08T03:00:43.144Z,9.60
2022-08-08T03:05:00.631Z,9.20
2022-08-08T03:06:34.226Z,10.10
2022-08-08T03:09:41.578Z,9.10
2022-08-08T03:12:36.552Z,9.10
2022-08-08T03:16:00.170Z,9.70
2022-08-08T03:18:52.261Z,9.30
2022-08-08T03:21:26.841Z,10.10
2022-08-08T03:24:09.352Z,10.20
2022-08-08T03:26:44.798Z,10.40
2022-08-08T03:29:38.147Z,10.60
2022-08-08T03:32:31.190Z,10.10
2022-08-08T03:35:00.455Z,11.40
2022-08-08T03:38:54.182Z,11.70
2022-08-08T03:40:29.314Z,11.50
2022-08-08T03:43:15.600Z,11.00
2022-08-08T03:46:06.290Z,11.50
2022-08-08T03:49:26.578Z,12.80
2022-08-08T03:51:40.361Z,12.80
2022-08-08T03:54:10.225Z,14.20
2022-08-08T03:56:46.457Z,14.40
2022-08-08T03:59:23.023Z,12.90
2022-08-08T04:02:32.795Z,11.90
2022-08-08T04:04:44.006Z,12.20
2022-08-08T04:07:16.507Z,11.70
2022-08-08T04:10:03.371Z,10.80
2022-08-08T04:12:36.165Z,11.00
2022-08-08T04:15:05.572Z,11.40
2022-08-08T04:17:46.601Z,13.10
2022-08-08T04:20:28.700Z,11.90
2022-08-08T04:22:58.976Z,10.10
2022-08-08T04:25:32.953Z,11.80
2022-08-08T04:28:36.991Z,11.10
2022-08-08T04:30:57.854Z,11.00
2022-08-08T04:33:29.767Z,12.40
2022-08-08T04:36:14.223Z,12.50
2022-08-08T04:38:44.234Z,12.40
2022-08-08T04:41:17.892Z,12.80
2022-08-08T04:43:53.910Z,13.10
2022-08-08T04:46:26.485Z,12.60
2022-08-08T04:49:00.596Z,13.00
2022-08-08T04:51:54.776Z,12.70
2022-08-08T04:54:39.904Z,12.00
2022-08-08T04:57:10.138Z,12.30
2022-08-08T04:59:42.751Z,12.00
2022-08-08T05:02:13.427Z,11.30
2022-08-08T05:04:44.625Z,11.40
2022-08-08T05:07:14.989Z,12.80
2022-08-08T05:09:44.551Z,11.10
2022-08-08T05:12:20.482Z,10.70
2022-08-08T05:14:52.351Z,11.90
2022-08-08T05:17:21.984Z,12.80
2022-08-08T05:20:12.119Z,12.60
2022-08-08T05:22:40.684Z,13.00
2022-08-08T05:25:09.569Z,12.20
2022-08-08T05:27:41.643Z,13.70
2022-08-08T05:30:14.788Z,12.20
2022-08-08T05:32:48.311Z,13.10
2022-08-08T05:35:23.760Z,12.00
2022-08-08T05:38:00.929Z,13.50
2022-08-08T05:40:37.925Z,14.90
2022-08-08T05:43:38.754Z,13.00
2022-08-08T05:46:08.138Z,15.10
2022-08-08T05:48:42.007Z,14.30
2022-08-08T05:51:15.732Z,13.50
2022-08-08T05:54:24.789Z,13.00
2022-08-08T05:56:47.343Z,13.30
2022-08-08T05:59:59.590Z,12.80
2022-08-08T06:02:40.952Z,13.10
2022-08-08T06:05:33.795Z,12.80
2022-08-08T06:08:10.184Z,11.90
2022-08-08T06:11:00.024Z,12.40
2022-08-08T06:13:36.580Z,13.10
2022-08-08T06:16:25.122Z,12.50
2022-08-08T06:19:16.579Z,11.00
2022-08-08T06:21:56.710Z,10.20
2022-08-08T06:24:36.491Z,11.70
2022-08-08T06:27:10.924Z,10.70
2022-08-08T06:29:59.921Z,10.80
2022-08-08T06:32:47.781Z,10.00
2022-08-08T06:36:05.939Z,11.40
2022-08-08T06:38:14.594Z,11.00
2022-08-08T06:40:54.422Z,10.30
2022-08-08T06:43:34.013Z,9.40
2022-08-08T06:46:13.832Z,10.30
2022-08-08T06:48:46.110Z,10.60
2022-08-08T06:51:15.894Z,9.60
2022-08-08T06:53:51.058Z,9.70
2022-08-08T06:56:30.969Z,9.30
2022-08-08T06:59:00.641Z,9.60
2022-08-08T07:02:17.968Z,10.00
2022-08-08T07:04:49.769Z,9.00
2022-08-08T07:07:47.785Z,9.60
2022-08-08T07:10:20.873Z,9.20
2022-08-08T07:12:54.056Z,9.60
2022-08-08T07:16:03.592Z,9.90
2022-08-08T07:18:40.716Z,10.30
2022-08-08T07:21:19.049Z,9.50
2022-08-08T07:24:05.988Z,9.00
2022-08-08T07:26:53.143Z,9.10
2022-08-08T07:30:01.726Z,9.60
2022-08-08T07:32:15.777Z,8.70
2022-08-08T07:35:00.265Z,9.20
2022-08-08T07:37:55.848Z,8.70
2022-08-08T07:40:36.564Z,9.20
2022-08-08T07:43:12.543Z,9.00
2022-08-08T07:46:05.240Z,9.40
2022-08-08T07:48:37.343Z,9.70
2022-08-08T07:51:07.427Z,8.90
2022-08-08T07:54:03.535Z,9.00
2022-08-08T07:56:50.399Z,9.40
2022-08-08T07:59:22.231Z,9.20
2022-08-08T08:02:36.220Z,8.80
2022-08-08T08:04:56.486Z,9.40
2022-08-08T08:07:39.037Z,8.80
2022-08-08T08:10:13.192Z,9.60
2022-08-08T08:12:54.645Z,9.20
2022-08-08T08:15:31.962Z,9.00
2022-08-08T08:18:05.456Z,8.50
2022-08-08T08:20:45.109Z,8.50
2022-08-08T08:23:14.295Z,9.30
2022-08-08T08:25:52.019Z,8.80
2022-08-08T08:28:26.023Z,8.60
2022-08-08T08:31:04.980Z,9.20
2022-08-08T08:33:36.058Z,8.50
2022-08-08T08:36:20.329Z,7.50
2022-08-08T08:38:52.609Z,7.90
2022-08-08T08:41:42.825Z,8.50
2022-08-08T08:44:18.348Z,7.80
2022-08-08T08:46:50.988Z,7.80
2022-08-08T08:49:30.622Z,8.00
2022-08-08T08:52:05.092Z,7.70
2022-08-08T08:54:36.486Z,7.40
2022-08-08T08:57:17.282Z,8.20
2022-08-08T09:00:00.221Z,8.20
2022-08-08T09:02:41.105Z,8.30
2022-08-08T09:05:13.897Z,8.20
2022-08-08T09:08:12.325Z,7.20
2022-08-08T09:10:47.951Z,8.20
2022-08-08T09:13:18.736Z,7.90
2022-08-08T09:16:04.076Z,8.70
2022-08-08T09:18:35.250Z,7.30
2022-08-08T09:21:57.055Z,8.00
2022-08-08T09:23:54.683Z,7.50
2022-08-08T09:26:39.577Z,7.90
2022-08-08T09:29:22.141Z,8.80
2022-08-08T09:32:04.928Z,7.80
2022-08-08T09:34:50.770Z,7.40
2022-08-08T09:37:58.508Z,7.80
2022-08-08T09:40:24.044Z,8.60
2022-08-08T09:44:04.616Z,8.70
2022-08-08T09:46:30.489Z,8.50
2022-08-08T09:49:18.390Z,8.30
2022-08-08T09:52:06.016Z,8.60
2022-08-08T09:54:45.100Z,16.40
2022-08-08T09:57:25.004Z,8.90
2022-08-08T10:00:35.979Z,7.80
2022-08-08T10:02:51.698Z,9.00
2022-08-08T10:05:31.388Z,9.70
2022-08-08T10:08:02.217Z,9.30
2022-08-08T10:10:50.006Z,8.20
2022-08-08T10:13:22.762Z,8.90
2022-08-08T10:16:03.713Z,9.50
2022-08-08T10:18:36.160Z,9.70
2022-08-08T10:21:23.107Z,9.80
2022-08-08T10:23:56.036Z,9.90
2022-08-08T10:26:59.493Z,7.80
2022-08-08T10:29:58.175Z,7.50
2022-08-08T10:32:38.289Z,8.30
2022-08-08T10:36:06.889Z,7.80
2022-08-08T10:38:13.486Z,8.20
2022-08-08T10:40:46.003Z,9.90
2022-08-08T10:43:14.609Z,7.40
2022-08-08T10:45:57.563Z,7.40
2022-08-08T10:48:55.832Z,8.40
2022-08-08T10:51:26.563Z,6.20
2022-08-08T10:54:02.265Z,6.00
2022-08-08T10:56:35.596Z,5.90
2022-08-08T10:59:14.120Z,5.60
2022-08-08T11:01:54.330Z,5.60
2022-08-08T11:04:38.639Z,5.60
2022-08-08T11:07:39.109Z,5.00
2022-08-08T11:10:08.004Z,5.10
2022-08-08T11:13:12.189Z,5.10
2022-08-08T11:16:00.490Z,4.80
2022-08-08T11:18:30.801Z,5.30
2022-08-08T11:21:09.922Z,4.60
2022-08-08T11:23:43.222Z,5.40
2022-08-08T11:26:27.434Z,5.40
2022-08-08T11:29:00.905Z,5.40
2022-08-08T11:31:46.717Z,5.20
2022-08-08T11:34:28.819Z,6.10
2022-08-08T11:37:14.877Z,5.00
2022-08-08T11:39:57.159Z,5.20
2022-08-08T11:42:31.022Z,5.20
2022-08-08T11:45:00.764Z,5.70
2022-08-08T11:47:39.737Z,4.80
2022-08-08T11:50:23.202Z,5.70
2022-08-08T11:52:53.687Z,5.20
2022-08-08T11:55:26.938Z,5.80
2022-08-08T11:58:08.419Z,5.70
2022-08-08T12:00:47.108Z,5.60
2022-08-08T12:03:37.009Z,4.90
2022-08-08T12:06:17.784Z,5.10
2022-08-08T12:08:46.770Z,5.20
2022-08-08T12:11:23.275Z,5.70
2022-08-08T12:14:04.956Z,5.40
2022-08-08T12:16:44.698Z,5.30
2022-08-08T12:19:15.454Z,5.90
2022-08-08T12:21:59.439Z,6.20
2022-08-08T12:24:43.294Z,5.90
2022-08-08T12:27:20.038Z,6.50
2022-08-08T12:30:01.808Z,6.30
2022-08-08T12:32:42.093Z,6.20
2022-08-08T12:35:23.257Z,5.50
2022-08-08T12:38:07.701Z,6.60
2022-08-08T12:40:54.074Z,6.20
2022-08-08T12:43:47.800Z,5.70
2022-08-08T12:46:25.281Z,5.50
2022-08-08T12:51:58.645Z,6.50
2022-08-08T12:54:40.813Z,7.90
2022-08-08T12:57:23.371Z,8.10
2022-08-08T13:00:06.267Z,6.70
2022-08-08T13:02:51.125Z,11.00
2022-08-08T13:05:26.629Z,10.90
2022-08-08T13:08:17.753Z,5.90
2022-08-08T13:10:57.300Z,6.30
2022-08-08T13:13:36.940Z,6.30
2022-08-08T13:16:25.812Z,6.40
2022-08-08T13:19:06.574Z,6.20
2022-08-08T13:21:55.516Z,6.30
2022-08-08T13:24:40.754Z,6.00
2022-08-08T13:27:18.452Z,5.90
2022-08-08T13:29:55.353Z,5.90
2022-08-08T13:32:26.921Z,6.40
2022-08-08T13:34:58.089Z,6.30
2022-08-08T13:38:05.381Z,6.00
2022-08-08T13:40:27.482Z,6.60
2022-08-08T13:42:57.775Z,7.00
2022-08-08T13:45:27.297Z,6.40
2022-08-08T13:48:13.457Z,6.90
2022-08-08T13:50:53.844Z,6.80
2022-08-08T13:53:36.288Z,6.70
2022-08-08T13:56:11.333Z,6.80
2022-08-08T13:58:57.803Z,5.90
2022-08-08T14:01:42.051Z,5.90
2022-08-08T14:04:23.168Z,6.90
2022-08-08T14:07:04.433Z,5.80
2022-08-08T14:10:02.193Z,6.60
2022-08-08T14:12:28.199Z,6.00
2022-08-08T14:14:56.918Z,6.30
2022-08-08T14:17:57.207Z,6.80
2022-08-08T14:20:56.915Z,5.80
2022-08-08T14:23:21.152Z,6.30
2022-08-08T14:26:10.844Z,6.40
2022-08-08T14:28:51.315Z,5.60
2022-08-08T14:31:23.258Z,6.40
2022-08-08T14:34:22.922Z,6.90
2022-08-08T14:36:54.473Z,7.10
2022-08-08T14:39:24.809Z,6.60
2022-08-08T14:42:07.492Z,8.30
2022-08-08T14:44:39.385Z,6.30
2022-08-08T14:47:17.102Z,6.20
2022-08-08T14:50:06.612Z,5.90
2022-08-08T14:52:50.175Z,6.30
2022-08-08T14:55:22.670Z,6.10
2022-08-08T14:58:11.842Z,6.30
2022-08-08T15:00:47.932Z,6.00
2022-08-08T15:03:17.083Z,6.80
2022-08-08T15:05:52.290Z,6.00
2022-08-08T15:08:35.513Z,6.30
2022-08-08T15:11:11.702Z,6.20
2022-08-08T15:14:00.865Z,6.20
2022-08-08T15:16:34.309Z,5.90
2022-08-08T15:19:07.612Z,5.70
2022-08-08T15:21:37.739Z,5.70
2022-08-08T15:24:16.186Z,7.20
2022-08-08T15:26:46.745Z,6.40
2022-08-08T15:29:22.277Z,6.70
2022-08-08T15:32:17.555Z,7.10
2022-08-08T15:34:42.412Z,6.30
2022-08-08T15:37:13.006Z,7.50
2022-08-08T15:39:41.724Z,6.70
2022-08-08T15:42:17.705Z,6.40
2022-08-08T15:44:59.490Z,6.30
2022-08-08T15:47:29.186Z,6.50
2022-08-08T15:50:00.796Z,6.50
2022-08-08T15:52:31.297Z,6.60
2022-08-08T15:55:01.497Z,6.20
2022-08-08T15:57:35.684Z,5.70
2022-08-08T16:00:26.125Z,5.50
2022-08-08T16:02:57.657Z,5.50
2022-08-08T16:05:35.493Z,6.00
2022-08-08T16:08:14.631Z,5.70
2022-08-08T16:13:14.104Z,9.00
2022-08-08T16:13:43.847Z,8.00
2022-08-08T16:16:17.580Z,7.00
2022-08-08T16:18:56.431Z,7.10
2022-08-08T16:21:32.087Z,7.40
2022-08-08T16:24:10.213Z,7.50
2022-08-08T16:26:42.410Z,6.80
2022-08-08T16:29:37.044Z,6.40
2022-08-08T16:32:11.289Z,6.30
2022-08-08T16:34:42.589Z,6.40
2022-08-08T16:37:11.216Z,6.40
2022-08-08T16:40:00.302Z,6.20
2022-08-08T16:42:27.979Z,6.30
2022-08-08T16:44:59.669Z,6.20
2022-08-08T16:47:40.548Z,6.40
2022-08-08T16:50:15.396Z,7.00
2022-08-08T16:55:05.802Z,5.90
2022-08-08T16:55:53.370Z,5.90
2022-08-08T16:58:25.548Z,5.80
2022-08-08T17:00:59.130Z,5.80
2022-08-08T17:03:58.106Z,5.60
2022-08-08T17:06:37.274Z,5.50
2022-08-08T17:09:06.086Z,5.50
2022-08-08T17:11:48.221Z,5.80
2022-08-08T17:14:18.706Z,5.40
2022-08-08T17:16:51.648Z,5.50
2022-08-08T17:19:20.552Z,5.50
2022-08-08T17:21:50.385Z,6.00
2022-08-08T17:24:27.146Z,6.00
2022-08-08T17:26:58.836Z,5.70
2022-08-08T17:29:33.761Z,5.90
2022-08-08T17:32:05.911Z,5.70
2022-08-08T17:34:54.168Z,5.50
2022-08-08T17:37:27.532Z,5.50
2022-08-08T17:40:10.549Z,5.60
2022-08-08T17:42:50.629Z,5.60
2022-08-08T17:45:22.915Z,5.60
2022-08-08T17:47:53.838Z,6.10
2022-08-08T17:50:23.976Z,5.70
2022-08-08T17:52:53.885Z,5.60
2022-08-08T17:56:05.973Z,5.90
2022-08-08T17:58:15.843Z,6.10
2022-08-08T18:00:47.405Z,5.40
2022-08-08T18:03:24.454Z,6.20
2022-08-08T18:05:52.667Z,6.40
2022-08-08T18:08:38.142Z,6.10
2022-08-08T18:11:16.147Z,5.40
2022-08-08T18:13:46.902Z,6.00
2022-08-08T18:16:22.959Z,5.50
2022-08-08T18:18:56.245Z,5.70
2022-08-08T18:21:59.103Z,5.40
2022-08-08T18:24:21.994Z,6.00
2022-08-08T18:26:56.603Z,6.60
2022-08-08T18:32:08.211Z,7.30
2022-08-08T18:34:40.375Z,7.20
2022-08-08T18:37:17.720Z,6.30
2022-08-08T18:40:00.529Z,8.30
2022-08-08T18:42:29.314Z,9.00
2022-08-08T18:44:57.724Z,11.80
2022-08-08T18:47:27.328Z,12.50
2022-08-08T18:49:59.938Z,13.50
2022-08-08T18:52:30.892Z,14.20
2022-08-08T18:55:09.592Z,14.40
2022-08-08T18:57:45.496Z,13.20
2022-08-08T19:00:20.468Z,7.90
2022-08-08T19:02:55.411Z,9.50
2022-08-08T19:05:31.834Z,6.90
2022-08-08T19:08:24.688Z,6.70
2022-08-08T19:11:01.891Z,8.50
2022-08-08T19:13:53.194Z,7.10
2022-08-08T19:16:28.481Z,7.40
2022-08-08T19:19:02.556Z,5.10
2022-08-08T19:21:49.379Z,6.20
2022-08-08T19:24:39.177Z,5.10
2022-08-08T19:27:10.717Z,4.50
2022-08-08T19:29:45.634Z,3.80
2022-08-08T19:32:21.767Z,5.00
2022-08-08T19:34:51.888Z,5.30
2022-08-08T19:37:42.063Z,4.80
2022-08-08T19:40:14.553Z,4.50
2022-08-08T19:42:45.893Z,5.90
2022-08-08T19:45:58.332Z,6.50
2022-08-08T19:48:28.105Z,5.00
2022-08-08T19:50:57.053Z,4.50
2022-08-08T19:53:52.324Z,4.70
2022-08-08T19:56:39.748Z,5.50
2022-08-08T19:59:07.504Z,6.10
2022-08-08T20:02:01.843Z,6.20
2022-08-08T20:04:25.942Z,7.20
2022-08-08T20:06:56.726Z,7.00
2022-08-08T20:09:32.171Z,7.00
2022-08-08T20:12:01.754Z,7.00
2022-08-08T20:14:33.889Z,7.30
2022-08-08T20:17:05.301Z,8.30
2022-08-08T20:19:34.848Z,8.70
2022-08-08T20:22:20.776Z,8.50
2022-08-08T20:24:55.400Z,8.30
2022-08-08T20:27:23.770Z,9.00
2022-08-08T20:30:00.928Z,7.90
2022-08-08T20:32:31.936Z,8.00
2022-08-08T20:35:02.393Z,8.00
2022-08-08T20:37:47.225Z,7.50
2022-08-08T20:40:38.609Z,7.30
2022-08-08T20:43:16.200Z,7.30
2022-08-08T20:45:57.639Z,6.40
2022-08-08T20:48:31.551Z,7.90
2022-08-08T20:50:59.738Z,8.30
2022-08-08T20:53:57.871Z,9.30
2022-08-08T20:56:17.165Z,8.90
2022-08-08T20:58:47.610Z,10.30
2022-08-08T21:01:19.641Z,8.80
2022-08-08T21:04:00.152Z,7.90
2022-08-08T21:06:53.125Z,8.90
2022-08-08T21:09:18.041Z,8.80
2022-08-08T21:11:51.627Z,8.60
2022-08-08T21:14:33.489Z,9.00
2022-08-08T21:17:06.246Z,7.80
2022-08-08T21:19:45.335Z,7.80
2022-08-08T21:22:15.838Z,7.90
2022-08-08T21:24:53.504Z,8.40
2022-08-08T21:28:05.452Z,9.40
2022-08-08T21:30:21.719Z,9.40
2022-08-08T21:32:51.561Z,8.20
2022-08-08T21:36:16.453Z,8.00
2022-08-08T21:38:17.163Z,9.70
2022-08-08T21:40:56.529Z,8.80
2022-08-08T21:43:33.479Z,9.60
2022-08-08T21:48:07.692Z,8.40
2022-08-08T21:48:56.827Z,8.50
2022-08-08T21:54:16.871Z,10.00
2022-08-08T21:54:22.387Z,9.20
2022-08-08T21:56:51.607Z,9.00
2022-08-08T21:59:21.057Z,9.40
2022-08-08T22:01:51.949Z,9.70
2022-08-08T22:04:24.523Z,10.30
2022-08-08T22:06:53.566Z,10.40
2022-08-08T22:09:26.816Z,11.40
2022-08-08T22:12:09.125Z,12.00
2022-08-08T22:14:38.180Z,11.40
2022-08-08T22:17:11.242Z,10.20
2022-08-08T22:20:11.521Z,9.50
2022-08-08T22:22:32.437Z,8.80
2022-08-08T22:25:17.660Z,9.20
2022-08-08T22:28:04.077Z,7.70
2022-08-08T22:30:33.820Z,8.50
2022-08-08T22:33:22.023Z,7.50
2022-08-08T22:36:04.412Z,7.00
2022-08-08T22:38:47.996Z,8.80
2022-08-08T22:41:21.757Z,7.40
2022-08-08T22:44:02.671Z,9.00
2022-08-08T22:46:38.925Z,9.00
2022-08-08T22:49:09.327Z,8.50
2022-08-08T22:51:42.597Z,7.60
2022-08-08T22:54:30.567Z,7.70
2022-08-08T22:57:11.462Z,7.80
2022-08-08T22:59:48.506Z,8.90
2022-08-08T23:02:29.181Z,8.10
2022-08-08T23:04:58.598Z,7.90
2022-08-08T23:07:51.430Z,6.70
2022-08-08T23:10:25.349Z,6.40
2022-08-08T23:12:56.163Z,6.50
2022-08-08T23:16:40.729Z,7.00
2022-08-08T23:18:14.245Z,6.70
2022-08-08T23:20:44.109Z,6.30
2022-08-08T23:23:13.792Z,6.70
2022-08-08T23:25:48.464Z,7.30
2022-08-08T23:28:18.961Z,6.80
2022-08-08T23:30:48.097Z,6.90
2022-08-08T23:33:21.160Z,6.10
2022-08-08T23:36:07.839Z,7.70
2022-08-08T23:38:41.943Z,7.70
2022-08-08T23:41:22.834Z,14.50
2022-08-08T23:43:56.566Z,14.70
2022-08-08T23:49:05.629Z,12.50
2022-08-08T23:49:18.814Z,12.50
2022-08-08T23:52:06.147Z,10.20
2022-08-08T23:54:42.399Z,9.70
2022-08-08T23:57:38.827Z,9.80
